sensor_id;sensor_type;location;lat;lon;timestamp;P1;durP1;ratioP1;P2;durP2;ratioP2
26106;SDS011;13866;50.748;12.630;2022-12-10T00:01:10;34.97;;;28.63;;
26106;SDS011;13866;50.748;12.630;2022-12-10T00:03:41;39.70;;;27.10;;
26106;SDS011;13866;50.748;12.630;2022-12-10T00:06:09;34.50;;;27.63;;
26106;SDS011;13866;50.748;12.630;2022-12-10T00:08:36;32.50;;;25.67;;
26106;SDS011;13866;50.748;12.630;2022-12-10T00:11:02;36.10;;;28.30;;
26106;SDS011;13866;50.748;12.630;2022-12-10T00:13:29;33.07;;;26.60;;
26106;SDS011;13866;50.748;12.630;2022-12-10T00:15:55;35.23;;;27.57;;
26106;SDS011;13866;50.748;12.630;2022-12-10T00:18:24;34.93;;;26.70;;
26106;SDS011;13866;50.748;12.630;2022-12-10T00:20:50;31.07;;;24.90;;
26106;SDS011;13866;50.748;12.630;2022-12-10T00:23:15;34.20;;;27.20;;
26106;SDS011;13866;50.748;12.630;2022-12-10T00:25:41;39.63;;;27.43;;
26106;SDS011;13866;50.748;12.630;2022-12-10T00:28:06;34.20;;;25.37;;
26106;SDS011;13866;50.748;12.630;2022-12-10T00:30:32;30.37;;;26.43;;
26106;SDS011;13866;50.748;12.630;2022-12-10T00:32:58;36.97;;;25.23;;
26106;SDS011;13866;50.748;12.630;2022-12-10T00:35:23;29.23;;;24.50;;
26106;SDS011;13866;50.748;12.630;2022-12-10T00:37:49;30.20;;;24.50;;
26106;SDS011;13866;50.748;12.630;2022-12-10T00:40:15;32.53;;;25.43;;
26106;SDS011;13866;50.748;12.630;2022-12-10T00:42:40;29.40;;;24.43;;
26106;SDS011;13866;50.748;12.630;2022-12-10T00:45:06;29.60;;;25.70;;
26106;SDS011;13866;50.748;12.630;2022-12-10T00:47:32;28.83;;;24.53;;
26106;SDS011;13866;50.748;12.630;2022-12-10T00:49:58;32.93;;;26.67;;
26106;SDS011;13866;50.748;12.630;2022-12-10T00:52:23;36.37;;;27.73;;
26106;SDS011;13866;50.748;12.630;2022-12-10T00:54:49;36.90;;;27.27;;
26106;SDS011;13866;50.748;12.630;2022-12-10T00:57:15;34.43;;;26.30;;
26106;SDS011;13866;50.748;12.630;2022-12-10T00:59:41;33.33;;;24.73;;
26106;SDS011;13866;50.748;12.630;2022-12-10T01:02:06;32.80;;;26.67;;
26106;SDS011;13866;50.748;12.630;2022-12-10T01:04:32;28.97;;;25.80;;
26106;SDS011;13866;50.748;12.630;2022-12-10T01:06:57;32.73;;;25.97;;
26106;SDS011;13866;50.748;12.630;2022-12-10T01:09:25;34.30;;;26.07;;
26106;SDS011;13866;50.748;12.630;2022-12-10T01:11:53;35.47;;;27.27;;
26106;SDS011;13866;50.748;12.630;2022-12-10T01:14:24;31.77;;;24.30;;
26106;SDS011;13866;50.748;12.630;2022-12-10T01:16:55;32.85;;;26.15;;
26106;SDS011;13866;50.748;12.630;2022-12-10T01:19:22;29.53;;;25.77;;
26106;SDS011;13866;50.748;12.630;2022-12-10T01:21:51;37.57;;;26.87;;
26106;SDS011;13866;50.748;12.630;2022-12-10T01:24:18;30.00;;;26.03;;
26106;SDS011;13866;50.748;12.630;2022-12-10T01:26:45;39.80;;;27.50;;
26106;SDS011;13866;50.748;12.630;2022-12-10T01:29:10;40.70;;;28.90;;
26106;SDS011;13866;50.748;12.630;2022-12-10T01:31:37;41.63;;;28.17;;
26106;SDS011;13866;50.748;12.630;2022-12-10T01:34:03;32.97;;;25.73;;
26106;SDS011;13866;50.748;12.630;2022-12-10T01:36:31;37.43;;;27.30;;
26106;SDS011;13866;50.748;12.630;2022-12-10T01:39:01;34.93;;;27.60;;
26106;SDS011;13866;50.748;12.630;2022-12-10T01:41:31;37.07;;;27.87;;
26106;SDS011;13866;50.748;12.630;2022-12-10T01:46:33;33.37;;;26.10;;
26106;SDS011;13866;50.748;12.630;2022-12-10T01:49:01;38.77;;;28.37;;
26106;SDS011;13866;50.748;12.630;2022-12-10T01:51:29;39.63;;;27.87;;
26106;SDS011;13866;50.748;12.630;2022-12-10T01:53:56;41.10;;;27.23;;
26106;SDS011;13866;50.748;12.630;2022-12-10T01:56:22;37.37;;;27.37;;
26106;SDS011;13866;50.748;12.630;2022-12-10T01:58:51;38.07;;;27.33;;
26106;SDS011;13866;50.748;12.630;2022-12-10T02:01:25;39.90;;;27.40;;
26106;SDS011;13866;50.748;12.630;2022-12-10T02:04:18;44.33;;;29.70;;
26106;SDS011;13866;50.748;12.630;2022-12-10T02:07:21;40.80;;;26.83;;
26106;SDS011;13866;50.748;12.630;2022-12-10T02:12:57;42.20;;;28.37;;
26106;SDS011;13866;50.748;12.630;2022-12-10T02:15:43;40.50;;;28.13;;
26106;SDS011;13866;50.748;12.630;2022-12-10T02:18:20;44.00;;;29.73;;
26106;SDS011;13866;50.748;12.630;2022-12-10T02:20:51;39.03;;;28.10;;
26106;SDS011;13866;50.748;12.630;2022-12-10T02:31:41;47.83;;;29.73;;
26106;SDS011;13866;50.748;12.630;2022-12-10T02:34:10;44.20;;;29.93;;
26106;SDS011;13866;50.748;12.630;2022-12-10T02:36:39;48.73;;;29.10;;
26106;SDS011;13866;50.748;12.630;2022-12-10T02:39:08;46.03;;;30.83;;
26106;SDS011;13866;50.748;12.630;2022-12-10T02:41:40;41.97;;;27.03;;
26106;SDS011;13866;50.748;12.630;2022-12-10T02:44:10;46.20;;;28.38;;
26106;SDS011;13866;50.748;12.630;2022-12-10T02:46:39;46.22;;;29.70;;
26106;SDS011;13866;50.748;12.630;2022-12-10T02:49:07;51.75;;;27.38;;
26106;SDS011;13866;50.748;12.630;2022-12-10T02:51:36;47.60;;;27.53;;
26106;SDS011;13866;50.748;12.630;2022-12-10T02:54:03;50.87;;;30.53;;
26106;SDS011;13866;50.748;12.630;2022-12-10T02:56:45;49.87;;;28.03;;
26106;SDS011;13866;50.748;12.630;2022-12-10T03:04:39;57.20;;;31.33;;
26106;SDS011;13866;50.748;12.630;2022-12-10T03:07:19;51.92;;;30.92;;
26106;SDS011;13866;50.748;12.630;2022-12-10T03:09:54;51.87;;;29.23;;
26106;SDS011;13866;50.748;12.630;2022-12-10T03:12:31;59.03;;;30.57;;
26106;SDS011;13866;50.748;12.630;2022-12-10T03:15:02;50.73;;;29.10;;
26106;SDS011;13866;50.748;12.630;2022-12-10T03:17:31;51.30;;;30.70;;
26106;SDS011;13866;50.748;12.630;2022-12-10T03:19:57;50.53;;;28.90;;
26106;SDS011;13866;50.748;12.630;2022-12-10T03:22:24;52.00;;;30.53;;
26106;SDS011;13866;50.748;12.630;2022-12-10T03:24:51;52.35;;;29.33;;
26106;SDS011;13866;50.748;12.630;2022-12-10T03:27:18;55.80;;;30.23;;
26106;SDS011;13866;50.748;12.630;2022-12-10T03:29:47;49.40;;;28.88;;
26106;SDS011;13866;50.748;12.630;2022-12-10T03:32:15;63.63;;;30.60;;
26106;SDS011;13866;50.748;12.630;2022-12-10T03:34:43;58.40;;;28.50;;
26106;SDS011;13866;50.748;12.630;2022-12-10T03:37:10;62.03;;;29.27;;
26106;SDS011;13866;50.748;12.630;2022-12-10T03:39:37;64.57;;;32.03;;
26106;SDS011;13866;50.748;12.630;2022-12-10T03:42:04;52.77;;;27.87;;
26106;SDS011;13866;50.748;12.630;2022-12-10T03:44:34;67.72;;;32.55;;
26106;SDS011;13866;50.748;12.630;2022-12-10T03:47:04;54.20;;;28.47;;
26106;SDS011;13866;50.748;12.630;2022-12-10T03:49:31;52.77;;;30.90;;
26106;SDS011;13866;50.748;12.630;2022-12-10T03:51:56;49.37;;;25.80;;
26106;SDS011;13866;50.748;12.630;2022-12-10T03:54:22;53.60;;;27.53;;
26106;SDS011;13866;50.748;12.630;2022-12-10T03:56:48;61.60;;;29.77;;
26106;SDS011;13866;50.748;12.630;2022-12-10T03:59:14;51.97;;;27.77;;
26106;SDS011;13866;50.748;12.630;2022-12-10T04:01:39;68.47;;;29.10;;
26106;SDS011;13866;50.748;12.630;2022-12-10T04:04:05;52.57;;;28.40;;
26106;SDS011;13866;50.748;12.630;2022-12-10T04:06:31;57.80;;;28.40;;
26106;SDS011;13866;50.748;12.630;2022-12-10T04:08:56;52.33;;;27.20;;
26106;SDS011;13866;50.748;12.630;2022-12-10T04:11:22;57.50;;;28.20;;
26106;SDS011;13866;50.748;12.630;2022-12-10T04:13:48;58.33;;;28.50;;
26106;SDS011;13866;50.748;12.630;2022-12-10T04:16:33;54.20;;;26.40;;
26106;SDS011;13866;50.748;12.630;2022-12-10T04:19:17;53.97;;;28.67;;
26106;SDS011;13866;50.748;12.630;2022-12-10T04:21:43;58.28;;;28.05;;
26106;SDS011;13866;50.748;12.630;2022-12-10T04:24:30;60.23;;;27.87;;
26106;SDS011;13866;50.748;12.630;2022-12-10T04:27:26;47.47;;;25.83;;
26106;SDS011;13866;50.748;12.630;2022-12-10T04:29:54;57.93;;;25.00;;
26106;SDS011;13866;50.748;12.630;2022-12-10T04:32:21;60.03;;;28.53;;
26106;SDS011;13866;50.748;12.630;2022-12-10T04:34:47;56.17;;;27.13;;
26106;SDS011;13866;50.748;12.630;2022-12-10T04:37:13;60.57;;;27.53;;
26106;SDS011;13866;50.748;12.630;2022-12-10T04:39:39;52.95;;;26.02;;
26106;SDS011;13866;50.748;12.630;2022-12-10T04:42:05;53.60;;;26.37;;
26106;SDS011;13866;50.748;12.630;2022-12-10T04:44:31;52.47;;;28.02;;
26106;SDS011;13866;50.748;12.630;2022-12-10T04:46:56;54.40;;;26.20;;
26106;SDS011;13866;50.748;12.630;2022-12-10T04:49:22;50.37;;;26.60;;
26106;SDS011;13866;50.748;12.630;2022-12-10T04:51:48;56.45;;;27.00;;
26106;SDS011;13866;50.748;12.630;2022-12-10T04:54:14;61.77;;;27.40;;
26106;SDS011;13866;50.748;12.630;2022-12-10T04:56:41;52.25;;;26.63;;
26106;SDS011;13866;50.748;12.630;2022-12-10T04:59:07;59.77;;;29.37;;
26106;SDS011;13866;50.748;12.630;2022-12-10T05:01:33;52.90;;;26.35;;
26106;SDS011;13866;50.748;12.630;2022-12-10T05:04:00;56.35;;;27.60;;
26106;SDS011;13866;50.748;12.630;2022-12-10T05:06:28;50.97;;;26.23;;
26106;SDS011;13866;50.748;12.630;2022-12-10T05:08:54;50.73;;;27.57;;
26106;SDS011;13866;50.748;12.630;2022-12-10T05:11:21;56.15;;;27.20;;
26106;SDS011;13866;50.748;12.630;2022-12-10T05:13:47;55.53;;;25.20;;
26106;SDS011;13866;50.748;12.630;2022-12-10T05:16:14;57.63;;;26.20;;
26106;SDS011;13866;50.748;12.630;2022-12-10T05:18:42;49.25;;;25.80;;
26106;SDS011;13866;50.748;12.630;2022-12-10T05:21:10;57.67;;;28.43;;
26106;SDS011;13866;50.748;12.630;2022-12-10T05:23:38;60.45;;;27.08;;
26106;SDS011;13866;50.748;12.630;2022-12-10T05:28:45;64.35;;;28.70;;
26106;SDS011;13866;50.748;12.630;2022-12-10T05:31:13;68.95;;;29.85;;
26106;SDS011;13866;50.748;12.630;2022-12-10T05:33:44;59.63;;;29.25;;
26106;SDS011;13866;50.748;12.630;2022-12-10T05:36:11;65.00;;;28.97;;
26106;SDS011;13866;50.748;12.630;2022-12-10T05:38:38;56.90;;;25.65;;
26106;SDS011;13866;50.748;12.630;2022-12-10T05:41:05;53.45;;;27.35;;
26106;SDS011;13866;50.748;12.630;2022-12-10T05:43:37;66.78;;;30.67;;
26106;SDS011;13866;50.748;12.630;2022-12-10T05:46:04;66.97;;;31.07;;
26106;SDS011;13866;50.748;12.630;2022-12-10T05:48:31;63.13;;;28.98;;
26106;SDS011;13866;50.748;12.630;2022-12-10T05:50:58;54.63;;;29.83;;
26106;SDS011;13866;50.748;12.630;2022-12-10T05:53:28;57.55;;;29.25;;
26106;SDS011;13866;50.748;12.630;2022-12-10T05:55:59;63.50;;;28.90;;
26106;SDS011;13866;50.748;12.630;2022-12-10T05:58:26;57.92;;;27.38;;
26106;SDS011;13866;50.748;12.630;2022-12-10T06:00:53;53.33;;;27.75;;
26106;SDS011;13866;50.748;12.630;2022-12-10T06:03:19;55.13;;;27.77;;
26106;SDS011;13866;50.748;12.630;2022-12-10T06:05:44;52.67;;;26.97;;
26106;SDS011;13866;50.748;12.630;2022-12-10T06:08:10;68.57;;;28.50;;
26106;SDS011;13866;50.748;12.630;2022-12-10T06:10:35;64.60;;;27.60;;
26106;SDS011;13866;50.748;12.630;2022-12-10T06:13:02;55.57;;;26.50;;
26106;SDS011;13866;50.748;12.630;2022-12-10T06:15:28;61.53;;;27.70;;
26106;SDS011;13866;50.748;12.630;2022-12-10T06:17:54;72.13;;;31.10;;
26106;SDS011;13866;50.748;12.630;2022-12-10T06:20:20;62.15;;;27.45;;
26106;SDS011;13866;50.748;12.630;2022-12-10T06:22:46;57.80;;;26.73;;
26106;SDS011;13866;50.748;12.630;2022-12-10T06:25:12;54.73;;;27.40;;
26106;SDS011;13866;50.748;12.630;2022-12-10T06:27:38;65.37;;;28.57;;
26106;SDS011;13866;50.748;12.630;2022-12-10T06:30:03;59.27;;;29.97;;
26106;SDS011;13866;50.748;12.630;2022-12-10T06:32:29;60.47;;;28.30;;
26106;SDS011;13866;50.748;12.630;2022-12-10T06:34:55;68.63;;;30.77;;
26106;SDS011;13866;50.748;12.630;2022-12-10T06:37:20;56.23;;;29.67;;
26106;SDS011;13866;50.748;12.630;2022-12-10T06:39:46;50.97;;;28.60;;
26106;SDS011;13866;50.748;12.630;2022-12-10T06:42:11;52.27;;;28.30;;
26106;SDS011;13866;50.748;12.630;2022-12-10T06:44:37;57.23;;;30.80;;
26106;SDS011;13866;50.748;12.630;2022-12-10T06:47:02;64.70;;;29.30;;
26106;SDS011;13866;50.748;12.630;2022-12-10T06:49:28;53.80;;;28.70;;
26106;SDS011;13866;50.748;12.630;2022-12-10T06:51:53;60.13;;;30.60;;
26106;SDS011;13866;50.748;12.630;2022-12-10T06:54:19;56.37;;;27.20;;
26106;SDS011;13866;50.748;12.630;2022-12-10T06:56:44;64.60;;;28.50;;
26106;SDS011;13866;50.748;12.630;2022-12-10T06:59:10;61.53;;;30.20;;
26106;SDS011;13866;50.748;12.630;2022-12-10T07:01:37;62.73;;;30.07;;
26106;SDS011;13866;50.748;12.630;2022-12-10T07:04:03;51.70;;;27.30;;
26106;SDS011;13866;50.748;12.630;2022-12-10T07:06:30;56.37;;;31.40;;
26106;SDS011;13866;50.748;12.630;2022-12-10T07:08:57;61.33;;;30.35;;
26106;SDS011;13866;50.748;12.630;2022-12-10T07:11:23;55.50;;;28.57;;
26106;SDS011;13866;50.748;12.630;2022-12-10T07:13:49;50.33;;;26.55;;
26106;SDS011;13866;50.748;12.630;2022-12-10T07:16:16;55.00;;;29.57;;
26106;SDS011;13866;50.748;12.630;2022-12-10T07:18:45;54.37;;;27.90;;
26106;SDS011;13866;50.748;12.630;2022-12-10T07:21:21;51.57;;;27.73;;
26106;SDS011;13866;50.748;12.630;2022-12-10T07:23:49;61.73;;;27.43;;
26106;SDS011;13866;50.748;12.630;2022-12-10T07:26:16;41.33;;;24.48;;
26106;SDS011;13866;50.748;12.630;2022-12-10T07:28:41;64.87;;;32.77;;
26106;SDS011;13866;50.748;12.630;2022-12-10T07:31:08;51.23;;;29.80;;
26106;SDS011;13866;50.748;12.630;2022-12-10T07:33:34;66.60;;;30.23;;
26106;SDS011;13866;50.748;12.630;2022-12-10T07:36:08;62.03;;;29.03;;
26106;SDS011;13866;50.748;12.630;2022-12-10T07:38:35;55.80;;;31.20;;
26106;SDS011;13866;50.748;12.630;2022-12-10T07:41:02;54.22;;;28.85;;
26106;SDS011;13866;50.748;12.630;2022-12-10T07:43:29;54.85;;;27.38;;
26106;SDS011;13866;50.748;12.630;2022-12-10T07:45:54;64.27;;;30.07;;
26106;SDS011;13866;50.748;12.630;2022-12-10T07:48:20;62.20;;;31.20;;
26106;SDS011;13866;50.748;12.630;2022-12-10T07:50:46;63.03;;;29.50;;
26106;SDS011;13866;50.748;12.630;2022-12-10T07:53:12;62.37;;;30.37;;
26106;SDS011;13866;50.748;12.630;2022-12-10T07:55:37;52.03;;;28.27;;
26106;SDS011;13866;50.748;12.630;2022-12-10T07:58:03;57.73;;;29.37;;
26106;SDS011;13866;50.748;12.630;2022-12-10T08:00:28;61.90;;;29.80;;
26106;SDS011;13866;50.748;12.630;2022-12-10T08:02:54;66.77;;;28.97;;
26106;SDS011;13866;50.748;12.630;2022-12-10T08:05:19;73.27;;;30.43;;
26106;SDS011;13866;50.748;12.630;2022-12-10T08:07:45;64.67;;;28.80;;
26106;SDS011;13866;50.748;12.630;2022-12-10T08:10:11;65.20;;;32.10;;
26106;SDS011;13866;50.748;12.630;2022-12-10T08:12:36;68.97;;;29.90;;
26106;SDS011;13866;50.748;12.630;2022-12-10T08:15:02;63.57;;;29.40;;
26106;SDS011;13866;50.748;12.630;2022-12-10T08:17:27;56.00;;;28.97;;
26106;SDS011;13866;50.748;12.630;2022-12-10T08:19:53;57.93;;;29.50;;
26106;SDS011;13866;50.748;12.630;2022-12-10T08:22:19;67.03;;;29.00;;
26106;SDS011;13866;50.748;12.630;2022-12-10T08:24:45;59.20;;;28.27;;
26106;SDS011;13866;50.748;12.630;2022-12-10T08:27:11;58.23;;;27.90;;
26106;SDS011;13866;50.748;12.630;2022-12-10T08:29:37;40.27;;;24.00;;
26106;SDS011;13866;50.748;12.630;2022-12-10T08:32:02;47.37;;;25.67;;
26106;SDS011;13866;50.748;12.630;2022-12-10T08:34:28;56.93;;;27.40;;
26106;SDS011;13866;50.748;12.630;2022-12-10T08:36:53;55.00;;;26.73;;
26106;SDS011;13866;50.748;12.630;2022-12-10T08:39:19;59.47;;;25.87;;
26106;SDS011;13866;50.748;12.630;2022-12-10T08:41:45;50.80;;;26.63;;
26106;SDS011;13866;50.748;12.630;2022-12-10T08:44:11;47.67;;;23.00;;
26106;SDS011;13866;50.748;12.630;2022-12-10T08:46:37;40.85;;;24.02;;
26106;SDS011;13866;50.748;12.630;2022-12-10T08:49:03;45.53;;;22.73;;
26106;SDS011;13866;50.748;12.630;2022-12-10T08:51:29;43.38;;;23.50;;
26106;SDS011;13866;50.748;12.630;2022-12-10T08:53:55;37.33;;;22.10;;
26106;SDS011;13866;50.748;12.630;2022-12-10T08:56:21;34.70;;;19.67;;
26106;SDS011;13866;50.748;12.630;2022-12-10T08:58:46;37.60;;;20.00;;
26106;SDS011;13866;50.748;12.630;2022-12-10T09:01:13;36.40;;;20.57;;
26106;SDS011;13866;50.748;12.630;2022-12-10T09:03:40;31.93;;;21.37;;
26106;SDS011;13866;50.748;12.630;2022-12-10T09:06:07;29.67;;;19.50;;
26106;SDS011;13866;50.748;12.630;2022-12-10T09:08:34;26.17;;;18.38;;
26106;SDS011;13866;50.748;12.630;2022-12-10T09:11:08;28.67;;;18.27;;
26106;SDS011;13866;50.748;12.630;2022-12-10T09:13:34;25.13;;;17.00;;
26106;SDS011;13866;50.748;12.630;2022-12-10T09:16:00;25.93;;;16.57;;
26106;SDS011;13866;50.748;12.630;2022-12-10T09:18:26;25.90;;;17.90;;
26106;SDS011;13866;50.748;12.630;2022-12-10T09:20:51;21.33;;;14.50;;
26106;SDS011;13866;50.748;12.630;2022-12-10T09:23:17;22.97;;;17.93;;
26106;SDS011;13866;50.748;12.630;2022-12-10T09:25:42;25.30;;;15.47;;
26106;SDS011;13866;50.748;12.630;2022-12-10T09:28:08;21.50;;;15.50;;
26106;SDS011;13866;50.748;12.630;2022-12-10T09:30:33;21.30;;;17.00;;
26106;SDS011;13866;50.748;12.630;2022-12-10T09:32:59;21.97;;;17.03;;
26106;SDS011;13866;50.748;12.630;2022-12-10T09:35:24;30.07;;;18.23;;
26106;SDS011;13866;50.748;12.630;2022-12-10T09:37:50;29.20;;;20.33;;
26106;SDS011;13866;50.748;12.630;2022-12-10T09:40:16;31.40;;;20.20;;
26106;SDS011;13866;50.748;12.630;2022-12-10T09:45:38;37.25;;;21.88;;
26106;SDS011;13866;50.748;12.630;2022-12-10T09:53:22;37.03;;;23.38;;
26106;SDS011;13866;50.748;12.630;2022-12-10T09:55:49;38.90;;;26.20;;
26106;SDS011;13866;50.748;12.630;2022-12-10T09:58:24;41.67;;;26.10;;
26106;SDS011;13866;50.748;12.630;2022-12-10T10:00:54;37.13;;;23.20;;
26106;SDS011;13866;50.748;12.630;2022-12-10T10:03:25;44.95;;;25.50;;
26106;SDS011;13866;50.748;12.630;2022-12-10T10:05:51;51.80;;;28.43;;
26106;SDS011;13866;50.748;12.630;2022-12-10T10:08:23;40.17;;;24.00;;
26106;SDS011;13866;50.748;12.630;2022-12-10T10:11:01;36.83;;;23.88;;
26106;SDS011;13866;50.748;12.630;2022-12-10T10:13:30;43.25;;;23.48;;
26106;SDS011;13866;50.748;12.630;2022-12-10T10:15:57;45.17;;;24.35;;
26106;SDS011;13866;50.748;12.630;2022-12-10T10:18:46;41.40;;;24.08;;
26106;SDS011;13866;50.748;12.630;2022-12-10T10:21:25;34.88;;;23.15;;
26106;SDS011;13866;50.748;12.630;2022-12-10T10:23:53;40.17;;;23.00;;
26106;SDS011;13866;50.748;12.630;2022-12-10T10:26:20;42.92;;;23.55;;
26106;SDS011;13866;50.748;12.630;2022-12-10T10:28:45;45.97;;;25.17;;
26106;SDS011;13866;50.748;12.630;2022-12-10T10:31:22;36.80;;;21.75;;
26106;SDS011;13866;50.748;12.630;2022-12-10T10:34:13;40.77;;;23.20;;
26106;SDS011;13866;50.748;12.630;2022-12-10T10:36:41;41.20;;;24.05;;
26106;SDS011;13866;50.748;12.630;2022-12-10T10:41:41;48.33;;;25.65;;
26106;SDS011;13866;50.748;12.630;2022-12-10T10:44:15;39.97;;;23.13;;
26106;SDS011;13866;50.748;12.630;2022-12-10T10:46:44;43.75;;;24.08;;
26106;SDS011;13866;50.748;12.630;2022-12-10T10:49:21;41.50;;;23.20;;
26106;SDS011;13866;50.748;12.630;2022-12-10T10:51:53;39.08;;;23.38;;
26106;SDS011;13866;50.748;12.630;2022-12-10T10:57:05;33.45;;;21.65;;
26106;SDS011;13866;50.748;12.630;2022-12-10T10:59:43;44.03;;;26.57;;
26106;SDS011;13866;50.748;12.630;2022-12-10T11:05:07;40.47;;;23.90;;
26106;SDS011;13866;50.748;12.630;2022-12-10T11:07:40;36.20;;;22.60;;
26106;SDS011;13866;50.748;12.630;2022-12-10T11:10:17;28.42;;;19.75;;
26106;SDS011;13866;50.748;12.630;2022-12-10T11:17:47;40.10;;;23.20;;
26106;SDS011;13866;50.748;12.630;2022-12-10T11:20:18;39.58;;;21.77;;
26106;SDS011;13866;50.748;12.630;2022-12-10T11:22:52;33.90;;;22.30;;
26106;SDS011;13866;50.748;12.630;2022-12-10T11:25:21;36.83;;;21.52;;
26106;SDS011;13866;50.748;12.630;2022-12-10T11:31:00;33.53;;;23.13;;
26106;SDS011;13866;50.748;12.630;2022-12-10T11:39:10;33.90;;;21.05;;
26106;SDS011;13866;50.748;12.630;2022-12-10T11:44:46;34.40;;;22.80;;
26106;SDS011;13866;50.748;12.630;2022-12-10T12:01:48;35.78;;;22.70;;
26106;SDS011;13866;50.748;12.630;2022-12-10T12:09:53;28.75;;;20.55;;
26106;SDS011;13866;50.748;12.630;2022-12-10T12:12:41;31.17;;;21.05;;
26106;SDS011;13866;50.748;12.630;2022-12-10T12:15:20;25.75;;;18.20;;
26106;SDS011;13866;50.748;12.630;2022-12-10T12:17:52;27.95;;;18.90;;
26106;SDS011;13866;50.748;12.630;2022-12-10T12:22:52;23.40;;;18.67;;
26106;SDS011;13866;50.748;12.630;2022-12-10T12:25:25;29.77;;;19.55;;
26106;SDS011;13866;50.748;12.630;2022-12-10T12:28:12;31.58;;;22.27;;
26106;SDS011;13866;50.748;12.630;2022-12-10T12:30:51;24.48;;;18.80;;
26106;SDS011;13866;50.748;12.630;2022-12-10T12:33:29;29.52;;;21.25;;
26106;SDS011;13866;50.748;12.630;2022-12-10T12:36:05;30.50;;;20.17;;
26106;SDS011;13866;50.748;12.630;2022-12-10T12:38:53;25.30;;;19.27;;
26106;SDS011;13866;50.748;12.630;2022-12-10T12:41:42;27.65;;;20.35;;
26106;SDS011;13866;50.748;12.630;2022-12-10T12:45:19;28.25;;;20.90;;
26106;SDS011;13866;50.748;12.630;2022-12-10T12:49:51;29.73;;;20.60;;
26106;SDS011;13866;50.748;12.630;2022-12-10T12:52:33;27.10;;;20.80;;
26106;SDS011;13866;50.748;12.630;2022-12-10T12:55:13;26.87;;;20.53;;
26106;SDS011;13866;50.748;12.630;2022-12-10T13:00:46;25.05;;;19.10;;
26106;SDS011;13866;50.748;12.630;2022-12-10T13:05:45;30.27;;;21.65;;
26106;SDS011;13866;50.748;12.630;2022-12-10T13:08:15;29.83;;;21.27;;
26106;SDS011;13866;50.748;12.630;2022-12-10T13:13:17;29.17;;;21.63;;
26106;SDS011;13866;50.748;12.630;2022-12-10T13:15:47;27.73;;;19.55;;
26106;SDS011;13866;50.748;12.630;2022-12-10T13:31:18;33.03;;;24.50;;
26106;SDS011;13866;50.748;12.630;2022-12-10T13:36:33;33.40;;;22.50;;
26106;SDS011;13866;50.748;12.630;2022-12-10T13:39:32;36.25;;;24.00;;
26106;SDS011;13866;50.748;12.630;2022-12-10T13:47:31;32.20;;;22.63;;
26106;SDS011;13866;50.748;12.630;2022-12-10T13:50:17;31.17;;;23.17;;
26106;SDS011;13866;50.748;12.630;2022-12-10T13:53:08;30.80;;;21.90;;
26106;SDS011;13866;50.748;12.630;2022-12-10T13:56:28;33.92;;;22.98;;
26106;SDS011;13866;50.748;12.630;2022-12-10T14:01:38;30.73;;;23.50;;
26106;SDS011;13866;50.748;12.630;2022-12-10T14:06:43;33.25;;;23.00;;
26106;SDS011;13866;50.748;12.630;2022-12-10T14:11:47;29.02;;;21.77;;
26106;SDS011;13866;50.748;12.630;2022-12-10T14:14:26;27.35;;;22.30;;
26106;SDS011;13866;50.748;12.630;2022-12-10T14:17:38;29.80;;;20.60;;
26106;SDS011;13866;50.748;12.630;2022-12-10T14:19:57;30.30;;;21.48;;
26106;SDS011;13866;50.748;12.630;2022-12-10T14:22:37;32.35;;;20.75;;
26106;SDS011;13866;50.748;12.630;2022-12-10T14:25:14;24.98;;;20.63;;
26106;SDS011;13866;50.748;12.630;2022-12-10T14:27:48;24.85;;;20.95;;
26106;SDS011;13866;50.748;12.630;2022-12-10T14:30:19;25.65;;;20.98;;
26106;SDS011;13866;50.748;12.630;2022-12-10T14:32:48;30.08;;;21.52;;
26106;SDS011;13866;50.748;12.630;2022-12-10T14:35:22;30.67;;;22.73;;
26106;SDS011;13866;50.748;12.630;2022-12-10T14:37:49;30.30;;;23.15;;
26106;SDS011;13866;50.748;12.630;2022-12-10T14:40:21;39.47;;;26.55;;
26106;SDS011;13866;50.748;12.630;2022-12-10T14:42:50;36.58;;;25.42;;
26106;SDS011;13866;50.748;12.630;2022-12-10T14:45:19;33.55;;;24.25;;
26106;SDS011;13866;50.748;12.630;2022-12-10T14:47:45;34.53;;;24.37;;
26106;SDS011;13866;50.748;12.630;2022-12-10T14:50:13;29.67;;;22.90;;
26106;SDS011;13866;50.748;12.630;2022-12-10T14:52:42;33.90;;;24.27;;
26106;SDS011;13866;50.748;12.630;2022-12-10T14:55:16;35.10;;;23.77;;
26106;SDS011;13866;50.748;12.630;2022-12-10T14:57:47;29.38;;;22.52;;
26106;SDS011;13866;50.748;12.630;2022-12-10T15:00:18;30.30;;;23.27;;
26106;SDS011;13866;50.748;12.630;2022-12-10T15:02:47;32.05;;;23.85;;
26106;SDS011;13866;50.748;12.630;2022-12-10T15:05:21;30.02;;;23.25;;
26106;SDS011;13866;50.748;12.630;2022-12-10T15:07:54;34.00;;;24.88;;
26106;SDS011;13866;50.748;12.630;2022-12-10T15:10:25;29.33;;;22.35;;
26106;SDS011;13866;50.748;12.630;2022-12-10T15:12:56;38.00;;;25.13;;
26106;SDS011;13866;50.748;12.630;2022-12-10T15:15:35;38.00;;;25.87;;
26106;SDS011;13866;50.748;12.630;2022-12-10T15:18:09;26.48;;;20.80;;
26106;SDS011;13866;50.748;12.630;2022-12-10T15:20:50;25.90;;;19.58;;
26106;SDS011;13866;50.748;12.630;2022-12-10T15:23:25;22.48;;;18.35;;
26106;SDS011;13866;50.748;12.630;2022-12-10T15:26:02;31.30;;;21.42;;
26106;SDS011;13866;50.748;12.630;2022-12-10T15:28:38;23.73;;;19.42;;
26106;SDS011;13866;50.748;12.630;2022-12-10T15:38:57;23.58;;;18.42;;
26106;SDS011;13866;50.748;12.630;2022-12-10T15:49:51;19.42;;;17.05;;
26106;SDS011;13866;50.748;12.630;2022-12-10T15:52:19;24.67;;;18.33;;
26106;SDS011;13866;50.748;12.630;2022-12-10T15:54:48;23.13;;;18.20;;
26106;SDS011;13866;50.748;12.630;2022-12-10T15:57:16;19.73;;;17.63;;
26106;SDS011;13866;50.748;12.630;2022-12-10T15:59:47;20.60;;;18.20;;
26106;SDS011;13866;50.748;12.630;2022-12-10T16:05:11;36.35;;;22.35;;
26106;SDS011;13866;50.748;12.630;2022-12-10T16:07:47;30.70;;;21.23;;
26106;SDS011;13866;50.748;12.630;2022-12-10T16:10:16;22.90;;;19.15;;
26106;SDS011;13866;50.748;12.630;2022-12-10T16:12:43;21.48;;;16.95;;
26106;SDS011;13866;50.748;12.630;2022-12-10T16:15:14;23.05;;;18.55;;
26106;SDS011;13866;50.748;12.630;2022-12-10T16:17:43;20.13;;;16.75;;
26106;SDS011;13866;50.748;12.630;2022-12-10T16:22:54;28.45;;;21.10;;
26106;SDS011;13866;50.748;12.630;2022-12-10T16:25:21;26.83;;;20.95;;
26106;SDS011;13866;50.748;12.630;2022-12-10T16:27:48;28.90;;;20.40;;
26106;SDS011;13866;50.748;12.630;2022-12-10T16:30:16;35.30;;;24.40;;
26106;SDS011;13866;50.748;12.630;2022-12-10T16:32:42;35.78;;;24.83;;
26106;SDS011;13866;50.748;12.630;2022-12-10T16:35:08;41.75;;;24.38;;
26106;SDS011;13866;50.748;12.630;2022-12-10T16:37:34;44.97;;;26.52;;
26106;SDS011;13866;50.748;12.630;2022-12-10T16:39:59;34.10;;;23.13;;
26106;SDS011;13866;50.748;12.630;2022-12-10T16:42:25;38.23;;;25.87;;